Time;durP1;ratioP1;P1;durP2;ratioP2;P2;SDS_P1;SDS_P2;PMS_P1;PMS_P2;Temp;Humidity;BMP_temperature;BMP_pressure;BME280_temperature;BME280_humidity;BME280_pressure;Samples;Min_cycle;Max_cycle;Signal;HPM_P1;HPM_P2
2021/12/21 01:04:25;;;;;;;1.45;1.35;;;6.00;99.90;;;;;;6180327;23;20291;-94
2021/12/21 01:11:27;;;;;;;1.65;1.60;;;6.00;99.90;;;;;;6209280;23;20272;-74
2021/12/21 01:15:02;;;;;;;1.75;1.65;;;5.90;99.90;;;;;;6205385;23;20188;-74
2021/12/21 01:17:49;;;;;;;1.60;1.50;;;5.90;99.90;;;;;;6211801;23;20186;-73
2021/12/21 01:38:20;;;;;;;;;;;;;;;;;;;;;
2021/12/21 01:51:02;;;;;;;2.97;1.42;;;5.90;99.90;;;;;;5044898;28;20300;-72
2021/12/21 01:53:34;;;;;;;1.70;1.60;;;5.90;99.90;;;;;;5104763;28;20224;-73
2021/12/21 01:56:06;;;;;;;2.30;2.10;;;6.00;99.90;;;;;;5106923;28;20231;-73
2021/12/21 01:58:40;;;;;;;4.07;2.85;;;5.90;99.90;;;;;;5104343;28;20268;-76
2021/12/21 02:01:14;;;;;;;4.40;4.05;;;6.00;99.90;;;;;;5104840;28;20711;-75
2021/12/21 02:07:07;;;;;;;96.40;20.15;;;6.10;99.90;;;;;;5088614;28;20235;-75
2021/12/21 02:09:51;;;;;;;2.72;2.53;;;6.10;99.90;;;;;;5103823;28;20273;-73
2021/12/21 02:12:23;;;;;;;2.20;2.10;;;6.00;99.90;;;;;;5103049;28;20216;-71
2021/12/21 02:14:57;;;;;;;2.70;2.10;;;6.10;99.90;;;;;;5100222;28;20273;-71
2021/12/21 02:20:38;;;;;;;2.97;2.05;;;6.20;99.90;;;;;;5072728;28;20255;-72
2021/12/21 02:23:12;;;;;;;2.55;2.35;;;6.10;99.90;;;;;;5101622;28;20220;-68
2021/12/21 02:33:16;;;;;;;1.70;1.60;;;6.00;99.90;;;;;;5041073;28;20242;-73
2021/12/21 02:52:14;;;;;;;1.90;1.80;;;5.80;99.90;;;;;;5085939;28;20317;-72
2021/12/21 03:15:43;;;;;;;2.55;2.35;;;5.60;99.90;;;;;;5063036;28;20216;-71
2021/12/21 03:18:14;;;;;;;1.80;1.70;;;5.60;99.90;;;;;;5069806;28;20241;-67
2021/12/21 03:20:45;;;;;;;3.90;1.55;;;5.50;99.90;;;;;;5063903;28;20235;-67
2021/12/21 03:23:16;;;;;;;1.80;1.70;;;5.50;99.90;;;;;;5065617;28;20209;-68
2021/12/21 03:25:47;;;;;;;2.13;1.92;;;5.40;99.90;;;;;;5065866;28;20213;-70
2021/12/21 04:19:00;;;;;;;2.80;2.60;;;4.70;99.90;;;;;;4986035;28;20683;-78
2021/12/21 04:21:32;;;;;;;2.65;2.45;;;4.50;99.90;;;;;;5061683;28;20560;-72
2021/12/21 05:59:40;;;;;;;6.85;6.30;;;5.00;99.90;;;;;;5027090;28;20679;-76
2021/12/21 06:02:11;;;;;;;5.72;5.25;;;5.00;99.90;;;;;;5016524;28;20222;-70
2021/12/21 06:04:42;;;;;;;6.80;6.10;;;5.00;99.90;;;;;;5023541;28;20413;-70
2021/12/21 08:54:38;;;;;;;11.83;10.23;;;5.30;99.90;;;;;;6119538;22;1991465;-70
2021/12/21 08:57:09;;;;;;;11.02;8.65;;;5.30;99.90;;;;;;6209815;23;20193;-70
2021/12/21 08:59:40;;;;;;;10.90;9.82;;;5.30;99.90;;;;;;6209939;23;20170;-72
2021/12/21 09:02:11;;;;;;;10.98;9.35;;;5.20;99.90;;;;;;6212153;23;20182;-74
2021/12/21 09:04:45;;;;;;;14.65;10.73;;;5.10;99.90;;;;;;6211066;23;20172;-74
2021/12/21 09:07:17;;;;;;;9.57;7.93;;;5.00;99.90;;;;;;6211456;23;20182;-74
2021/12/21 09:09:57;;;;;;;8.30;7.43;;;5.00;99.90;;;;;;6210558;23;20212;-74
2021/12/21 09:12:30;;;;;;;5.90;5.30;;;4.90;99.90;;;;;;6210378;23;20198;-74
2021/12/21 09:15:05;;;;;;;6.22;4.05;;;4.80;99.90;;;;;;6211807;23;20188;-74
2021/12/21 09:17:36;;;;;;;4.82;4.05;;;4.60;99.90;;;;;;6211876;23;20182;-73
2021/12/21 09:20:09;;;;;;;5.93;4.70;;;4.60;99.90;;;;;;6207099;23;20192;-75
2021/12/21 09:22:48;;;;;;;4.63;4.25;;;4.50;99.90;;;;;;6208791;23;20192;-74
2021/12/21 09:25:22;;;;;;;5.68;5.18;;;4.40;99.90;;;;;;6209808;23;20178;-74
2021/12/21 09:27:52;;;;;;;5.50;5.00;;;4.30;99.90;;;;;;6211758;23;20162;-74
2021/12/21 09:30:25;;;;;;;4.30;3.90;;;4.30;99.90;;;;;;6208164;23;20280;-74
2021/12/21 09:32:56;;;;;;;3.97;3.58;;;4.20;99.90;;;;;;6211051;23;20186;-74
2021/12/21 09:35:28;;;;;;;4.50;4.10;;;4.10;99.90;;;;;;6208315;23;20645;-73
2021/12/21 09:38:02;;;;;;;4.32;3.55;;;4.00;99.90;;;;;;6210067;23;20247;-73
2021/12/21 09:40:39;;;;;;;3.63;3.33;;;3.90;99.90;;;;;;6210010;23;20184;-74
2021/12/21 09:43:11;;;;;;;4.13;3.72;;;3.90;99.90;;;;;;6209253;23;20192;-74
2021/12/21 09:45:42;;;;;;;4.90;4.00;;;3.90;99.90;;;;;;6211379;23;20182;-74
2021/12/21 09:48:12;;;;;;;3.88;3.47;;;3.90;99.90;;;;;;6208471;23;20185;-74
2021/12/21 09:50:44;;;;;;;4.25;3.85;;;3.80;99.90;;;;;;6209885;23;20244;-74
2021/12/21 09:53:16;;;;;;;4.75;3.70;;;3.70;99.90;;;;;;6208177;23;20272;-74
2021/12/21 09:55:49;;;;;;;5.10;3.20;;;3.70;99.90;;;;;;6209799;23;20202;-74
2021/12/21 09:58:20;;;;;;;4.50;3.80;;;3.60;99.90;;;;;;6210523;23;20196;-73
2021/12/21 14:11:28;;;;;;;5.65;4.32;;;2.20;99.90;;;;;;6238723;23;20744;-64
2021/12/21 14:14:02;;;;;;;5.47;4.32;;;2.10;99.90;;;;;;6240229;23;20184;-64
2021/12/21 14:16:34;;;;;;;7.50;4.93;;;2.10;99.90;;;;;;6238604;23;20181;-65
2021/12/21 14:19:07;;;;;;;5.85;4.38;;;2.10;99.90;;;;;;6239452;23;20606;-67
2021/12/21 14:21:39;;;;;;;6.63;5.18;;;2.10;99.90;;;;;;6237077;23;20272;-71
2021/12/21 14:24:12;;;;;;;7.88;5.38;;;2.10;99.90;;;;;;6238157;23;20189;-71
2021/12/21 14:26:52;;;;;;;4.80;4.40;;;2.10;99.90;;;;;;6238733;23;20495;-68
2021/12/21 14:29:24;;;;;;;6.72;5.57;;;2.10;99.90;;;;;;6238183;23;20636;-68
2021/12/21 14:32:02;;;;;;;9.05;5.97;;;2.10;99.90;;;;;;6238825;23;20185;-67
2021/12/21 14:34:36;;;;;;;5.85;5.10;;;2.00;99.90;;;;;;6237570;23;20524;-66
2021/12/21 14:37:09;;;;;;;6.60;5.03;;;2.00;99.90;;;;;;6238462;23;20188;-66
2021/12/21 14:39:40;;;;;;;6.82;5.15;;;2.00;99.90;;;;;;6238415;23;20181;-67
2021/12/21 14:42:16;;;;;;;5.68;5.13;;;2.10;99.90;;;;;;6236212;23;20185;-68
2021/12/21 14:44:48;;;;;;;6.05;4.88;;;2.00;99.90;;;;;;6240271;23;20197;-67
2021/12/21 14:47:21;;;;;;;6.57;5.13;;;2.00;99.90;;;;;;6238177;23;20181;-67
2021/12/21 14:49:55;;;;;;;6.70;5.90;;;2.00;99.90;;;;;;6239120;23;20189;-67
2021/12/21 14:52:33;;;;;;;6.63;5.90;;;2.00;99.90;;;;;;6236549;23;20184;-67
2021/12/21 14:55:07;;;;;;;7.80;5.63;;;2.20;99.90;;;;;;6238257;23;20195;-67
2021/12/21 14:57:44;;;;;;;8.18;6.32;;;2.10;99.90;;;;;;6238718;23;20192;-67
2021/12/21 15:00:17;;;;;;;7.40;5.30;;;2.20;99.90;;;;;;6235842;23;20539;-67
2021/12/21 15:02:52;;;;;;;9.07;6.15;;;2.20;99.90;;;;;;6238901;23;20486;-68
2021/12/21 15:05:26;;;;;;;6.93;5.90;;;2.30;99.90;;;;;;6238562;23;20180;-68
2021/12/21 15:07:58;;;;;;;6.03;4.97;;;2.20;99.90;;;;;;6238726;23;20508;-67
2021/12/21 15:10:31;;;;;;;7.97;5.53;;;2.20;99.90;;;;;;6237649;23;20252;-68
2021/12/21 15:13:04;;;;;;;8.00;5.88;;;2.30;99.90;;;;;;6238244;23;20209;-68
2021/12/21 15:15:36;;;;;;;6.90;5.75;;;2.30;99.90;;;;;;6236279;23;20497;-66
2021/12/21 15:18:09;;;;;;;7.88;6.15;;;2.20;99.90;;;;;;6239858;23;20185;-68
2021/12/21 15:20:41;;;;;;;7.60;5.13;;;2.20;99.90;;;;;;6237862;23;20186;-68
2021/12/21 15:23:12;;;;;;;8.25;6.25;;;2.20;99.90;;;;;;6236439;23;20211;-67
2021/12/21 15:25:43;;;;;;;8.18;5.22;;;2.20;99.90;;;;;;6240456;23;20185;-68
2021/12/21 15:28:16;;;;;;;6.72;5.00;;;2.30;99.90;;;;;;6237854;23;20189;-66
2021/12/21 15:30:47;;;;;;;10.45;6.47;;;2.30;99.90;;;;;;6238794;23;20207;-67
2021/12/21 15:33:17;;;;;;;7.55;6.72;;;2.40;99.90;;;;;;6239150;23;20185;-67
2021/12/21 15:35:48;;;;;;;9.18;6.63;;;2.50;99.90;;;;;;6237950;23;20220;-67
2021/12/21 15:38:19;;;;;;;8.73;5.95;;;2.50;99.90;;;;;;6239721;23;20269;-67
2021/12/21 15:40:50;;;;;;;7.30;6.43;;;2.60;99.90;;;;;;6242154;23;20196;-66
2021/12/21 15:43:30;;;;;;;8.75;6.75;;;2.50;99.90;;;;;;6237819;23;20252;-67
2021/12/21 15:46:01;;;;;;;8.20;6.45;;;2.70;99.90;;;;;;6237839;23;20187;-67
2021/12/21 15:48:32;;;;;;;10.25;7.22;;;2.70;99.90;;;;;;6240746;23;20200;-67
2021/12/21 15:51:04;;;;;;;8.38;6.60;;;2.60;99.90;;;;;;6240123;23;20273;-67
2021/12/21 15:53:38;;;;;;;11.90;7.15;;;2.60;99.90;;;;;;6239142;23;20185;-67
2021/12/21 15:56:08;;;;;;;8.98;7.85;;;2.60;99.90;;;;;;6241457;23;20524;-67
2021/12/21 15:58:41;;;;;;;9.63;6.90;;;2.60;99.90;;;;;;6239839;23;20263;-67
2021/12/21 16:01:12;;;;;;;10.48;7.63;;;2.60;99.90;;;;;;6239804;23;20186;-68
2021/12/21 16:03:44;;;;;;;11.40;7.28;;;2.70;99.90;;;;;;6238344;23;20243;-67
2021/12/21 16:06:17;;;;;;;7.95;6.10;;;2.80;99.90;;;;;;6237293;23;20235;-68
2021/12/21 16:08:48;;;;;;;6.43;5.28;;;2.90;99.90;;;;;;6239512;23;20586;-67
2021/12/21 16:11:19;;;;;;;5.57;4.60;;;3.00;99.90;;;;;;6237343;23;20201;-67
2021/12/21 16:13:52;;;;;;;6.15;5.28;;;3.10;99.90;;;;;;6239306;23;20182;-67
2021/12/21 16:16:27;;;;;;;4.85;4.15;;;3.10;99.90;;;;;;6241953;23;20535;-66
2021/12/21 16:18:58;;;;;;;299.10;55.80;;;3.20;99.90;;;;;;6227547;23;20197;-65
2021/12/21 16:21:29;;;;;;;12.80;5.82;;;3.40;99.90;;;;;;6239092;23;20258;-66
2021/12/21 16:24:20;;;;;;;6.95;4.82;;;3.40;99.90;;;;;;6238132;23;20185;-67
2021/12/21 16:26:52;;;;;;;5.80;4.47;;;3.50;99.90;;;;;;6240988;23;20185;-66
2021/12/21 16:29:24;;;;;;;12.13;6.32;;;3.40;99.90;;;;;;6236565;23;20185;-66
2021/12/21 16:31:55;;;;;;;5.65;5.05;;;3.30;99.90;;;;;;6235950;23;20205;-66
2021/12/21 16:34:28;;;;;;;8.95;4.70;;;3.30;99.90;;;;;;6237030;23;20189;-65
2021/12/21 16:36:59;;;;;;;5.20;4.30;;;3.30;99.90;;;;;;6239253;23;20203;-66
2021/12/21 16:39:32;;;;;;;7.13;5.63;;;3.30;99.90;;;;;;6240471;23;20218;-66
2021/12/21 16:42:06;;;;;;;6.18;4.80;;;3.30;99.90;;;;;;6237187;23;20177;-73
2021/12/21 16:44:39;;;;;;;116.05;23.38;;;3.40;99.90;;;;;;6237795;23;20539;-68
2021/12/21 16:47:12;;;;;;;7.10;5.47;;;3.40;99.90;;;;;;6240950;23;20182;-70
2021/12/21 16:49:45;;;;;;;259.45;47.30;;;3.50;99.90;;;;;;6233849;23;20181;-71
2021/12/21 16:52:16;;;;;;;9.25;5.65;;;3.50;99.90;;;;;;6237924;23;20200;-70
2021/12/21 16:54:47;;;;;;;6.20;5.18;;;3.50;99.90;;;;;;6236128;23;20181;-69
2021/12/21 16:57:18;;;;;;;186.48;32.03;;;3.50;99.90;;;;;;6236534;23;20193;-70
2021/12/21 16:59:53;;;;;;;121.57;25.08;;;3.60;99.90;;;;;;6238531;23;20195;-70
2021/12/21 17:02:24;;;;;;;43.30;12.65;;;3.70;99.90;;;;;;6240667;23;20212;-69
2021/12/21 17:05:07;;;;;;;28.48;9.75;;;3.80;99.90;;;;;;6237138;23;20520;-73
2021/12/21 17:07:52;;;;;;;13.85;6.35;;;3.90;99.90;;;;;;6236073;23;20179;-75
2021/12/21 17:10:50;;;;;;;8.48;5.47;;;4.30;99.90;;;;;;6237311;22;20239;-72
2021/12/21 17:13:46;;;;;;;6.45;5.10;;;4.40;99.90;;;;;;6238440;23;20231;-74
2021/12/21 17:16:36;;;;;;;5.30;4.80;;;5.20;99.90;;;;;;6235664;23;20713;-72
2021/12/21 17:19:07;;;;;;;9.98;5.20;;;6.50;99.90;;;;;;6237142;23;20224;-71
2021/12/21 17:21:38;;;;;;;7.45;5.22;;;7.10;99.90;;;;;;6237443;23;20188;-69
2021/12/21 17:24:09;;;;;;;4.45;3.95;;;7.60;99.90;;;;;;6236469;23;20177;-68
2021/12/21 17:26:40;;;;;;;4.55;4.15;;;8.10;99.90;;;;;;6236269;23;20268;-69
2021/12/21 17:29:16;;;;;;;5.40;4.30;;;8.60;99.90;;;;;;6228107;23;20686;-76
2021/12/21 17:31:51;;;;;;;6.03;4.90;;;9.30;99.90;;;;;;6233490;23;20205;-69
2021/12/21 17:34:22;;;;;;;5.65;4.63;;;9.10;99.90;;;;;;6234688;23;20903;-70
2021/12/21 17:36:53;;;;;;;5.10;4.60;;;8.70;99.90;;;;;;6237919;23;20185;-70
2021/12/21 17:39:26;;;;;;;5.07;4.30;;;8.70;99.90;;;;;;6239391;23;21273;-69
2021/12/21 17:41:57;;;;;;;5.70;4.35;;;8.70;99.90;;;;;;6236810;23;20414;-70
2021/12/21 17:44:29;;;;;;;4.80;4.30;;;9.00;99.90;;;;;;6236233;23;20652;-71
2021/12/21 17:47:01;;;;;;;4.87;4.40;;;9.20;99.90;;;;;;6238727;23;20491;-70
2021/12/21 17:49:33;;;;;;;4.50;4.10;;;8.50;99.90;;;;;;6235755;23;20760;-70
2021/12/21 17:52:04;;;;;;;6.13;4.93;;;8.00;99.90;;;;;;6235758;23;20448;-70
2021/12/21 17:54:38;;;;;;;5.45;4.28;;;7.60;99.90;;;;;;6234953;23;20215;-70
2021/12/21 17:57:14;;;;;;;4.60;4.10;;;7.20;99.90;;;;;;6235857;23;20597;-70
2021/12/21 17:59:46;;;;;;;6.00;4.72;;;6.70;99.90;;;;;;6237830;23;20189;-70
2021/12/21 18:02:19;;;;;;;4.50;4.10;;;6.80;99.90;;;;;;6240416;23;20177;-69
2021/12/21 18:04:51;;;;;;;4.30;3.90;;;6.70;99.90;;;;;;6236610;23;20181;-69
2021/12/21 18:07:23;;;;;;;3.95;3.65;;;6.60;99.90;;;;;;6239361;23;20181;-69
2021/12/21 18:09:54;;;;;;;4.03;3.65;;;6.60;99.90;;;;;;6235442;22;20293;-68
2021/12/21 18:12:24;;;;;;;4.13;3.72;;;6.50;99.90;;;;;;6235733;23;20208;-69
2021/12/21 18:14:55;;;;;;;3.60;3.30;;;6.60;99.90;;;;;;6236334;23;20188;-69
2021/12/21 18:17:28;;;;;;;3.70;3.40;;;6.80;99.90;;;;;;6237370;23;20199;-69
2021/12/21 18:19:59;;;;;;;3.88;3.58;;;6.80;99.90;;;;;;6236358;23;20181;-69
2021/12/21 18:22:29;;;;;;;7.00;4.22;;;7.00;99.90;;;;;;6235018;23;20197;-70
2021/12/21 18:25:00;;;;;;;4.78;4.32;;;7.20;99.90;;;;;;6237488;23;20185;-69
2021/12/21 18:27:31;;;;;;;4.82;4.32;;;7.50;99.90;;;;;;6233006;23;20196;-69
2021/12/21 18:30:04;;;;;;;3.83;3.30;;;7.60;99.90;;;;;;6234440;23;20609;-69
2021/12/21 18:32:36;;;;;;;3.92;3.20;;;7.60;99.90;;;;;;6239411;23;20232;-68
2021/12/21 18:35:08;;;;;;;4.70;3.88;;;7.60;99.90;;;;;;6235219;23;20182;-69
2021/12/21 18:37:42;;;;;;;5.10;3.60;;;7.50;99.90;;;;;;6236910;23;20181;-69
2021/12/21 18:40:22;;;;;;;4.22;3.47;;;7.30;99.90;;;;;;6238279;23;20186;-69
2021/12/21 18:43:07;;;;;;;5.28;4.15;;;7.20;99.90;;;;;;6231130;23;20578;-69
2021/12/21 18:45:38;;;;;;;5.80;3.65;;;7.40;99.90;;;;;;6239240;23;20532;-69
2021/12/21 18:48:11;;;;;;;4.38;3.80;;;7.60;99.90;;;;;;6237128;23;20181;-69
2021/12/21 18:50:42;;;;;;;5.35;3.50;;;8.00;99.90;;;;;;6236844;23;20202;-69
2021/12/21 18:53:13;;;;;;;3.80;3.50;;;8.00;99.90;;;;;;6234135;23;20201;-69
2021/12/21 18:55:43;;;;;;;4.85;3.45;;;8.10;99.90;;;;;;6238432;23;20188;-69
2021/12/21 18:58:14;;;;;;;3.78;3.35;;;8.20;99.90;;;;;;6236077;23;20196;-69
2021/12/21 19:00:48;;;;;;;3.73;2.73;;;8.60;99.90;;;;;;6236190;23;20200;-69
2021/12/21 19:03:25;;;;;;;3.30;2.80;;;9.30;99.90;;;;;;6236779;23;20419;-69
2021/12/21 19:05:57;;;;;;;3.10;2.80;;;10.00;99.90;;;;;;6237081;23;20404;-69
2021/12/21 19:08:28;;;;;;;5.30;3.53;;;10.50;99.90;;;;;;6234799;23;20426;-69
2021/12/21 19:10:59;;;;;;;3.67;3.30;;;10.90;99.90;;;;;;6239356;22;20522;-70
2021/12/21 19:13:33;;;;;;;3.37;3.07;;;11.10;99.90;;;;;;6234404;23;20450;-68
2021/12/21 19:16:04;;;;;;;3.57;3.27;;;11.10;99.90;;;;;;6239424;23;20408;-69
2021/12/21 19:18:37;;;;;;;4.90;3.03;;;10.40;99.90;;;;;;6235218;23;20809;-69
2021/12/21 19:21:08;;;;;;;3.67;3.33;;;9.80;99.90;;;;;;6236727;23;20412;-68
2021/12/21 19:23:39;;;;;;;4.00;3.60;;;9.30;99.90;;;;;;6230213;23;20424;-74
2021/12/21 19:26:10;;;;;;;3.27;3.00;;;9.00;99.90;;;;;;6238154;23;20408;-68
2021/12/21 19:28:41;;;;;;;6.83;3.97;;;8.90;99.90;;;;;;6235705;23;20408;-67
2021/12/21 19:31:12;;;;;;;3.23;2.93;;;8.50;99.90;;;;;;6234513;23;20415;-67
2021/12/21 19:33:45;;;;;;;3.95;3.35;;;8.50;99.90;;;;;;6237221;23;20447;-71
2021/12/21 19:36:16;;;;;;;3.90;3.27;;;8.40;99.90;;;;;;6237303;23;20185;-71
2021/12/21 19:38:49;;;;;;;3.40;3.10;;;8.10;99.90;;;;;;6236839;23;20753;-70
2021/12/21 19:41:20;;;;;;;2.93;2.60;;;7.80;99.90;;;;;;6226108;23;20427;-69
2021/12/21 19:43:51;;;;;;;3.10;2.80;;;8.10;99.90;;;;;;6235929;23;20447;-69
2021/12/21 19:46:22;;;;;;;3.65;2.90;;;8.20;99.90;;;;;;6237092;23;20414;-69
2021/12/21 19:48:55;;;;;;;3.35;2.60;;;8.10;99.90;;;;;;6233656;23;20185;-70
2021/12/21 19:51:25;;;;;;;3.45;3.15;;;7.90;99.90;;;;;;6235657;23;20189;-70
2021/12/21 19:53:56;;;;;;;3.75;2.95;;;7.90;99.90;;;;;;6233914;23;20292;-73
2021/12/21 19:56:30;;;;;;;3.15;2.85;;;8.10;99.90;;;;;;6238941;23;20224;-71
2021/12/21 19:59:03;;;;;;;3.50;3.08;;;7.80;99.90;;;;;;6237062;23;20463;-72
2021/12/21 20:01:34;;;;;;;3.28;3.03;;;7.80;99.90;;;;;;6237043;23;20185;-72
2021/12/21 20:04:10;;;;;;;4.05;3.03;;;7.80;99.90;;;;;;6235684;23;20181;-71
2021/12/21 20:06:41;;;;;;;4.10;2.70;;;7.70;99.90;;;;;;6239999;23;20211;-71
2021/12/21 20:09:12;;;;;;;4.05;3.30;;;7.60;99.90;;;;;;6239297;23;20192;-72
2021/12/21 20:11:52;;;;;;;2.83;2.53;;;7.50;99.90;;;;;;6240291;23;20235;-72
2021/12/21 20:14:30;;;;;;;3.92;3.25;;;7.60;99.90;;;;;;6237463;23;20208;-71
2021/12/21 20:17:04;;;;;;;3.75;2.58;;;7.50;99.90;;;;;;6239895;23;20210;-73
2021/12/21 20:19:44;;;;;;;3.25;2.95;;;7.60;99.90;;;;;;6232583;23;20184;-73
2021/12/21 20:22:16;;;;;;;4.35;2.75;;;8.00;99.90;;;;;;6234241;23;20181;-73
2021/12/21 20:24:49;;;;;;;12.57;4.55;;;8.10;99.90;;;;;;6229266;23;20179;-73
2021/12/21 20:27:26;;;;;;;9.13;3.67;;;8.20;99.90;;;;;;6241031;23;20191;-73
2021/12/21 20:30:30;;;;;;;7.45;3.08;;;8.30;99.90;;;;;;6236534;23;20258;-72
2021/12/21 20:33:21;;;;;;;2.08;1.83;;;8.10;99.90;;;;;;6238474;23;20207;-72
2021/12/21 20:36:02;;;;;;;3.08;2.60;;;8.20;99.90;;;;;;6240902;23;20260;-73
2021/12/21 20:38:34;;;;;;;2.75;2.42;;;7.80;99.90;;;;;;6236644;23;20209;-72
2021/12/21 20:41:06;;;;;;;2.40;2.20;;;7.80;99.90;;;;;;6241708;23;20188;-72
2021/12/21 20:43:39;;;;;;;3.20;2.90;;;7.70;99.90;;;;;;6235911;23;20197;-71
2021/12/21 20:46:11;;;;;;;2.40;2.17;;;7.80;99.90;;;;;;6236394;23;20203;-71
2021/12/21 20:48:42;;;;;;;2.90;2.60;;;7.80;99.90;;;;;;6234309;23;20182;-72
2021/12/21 20:55:17;;;;;;;2.95;2.65;;;8.10;99.90;;;;;;6175067;23;20224;-72
2021/12/21 20:57:51;;;;;;;2.30;2.05;;;8.10;99.90;;;;;;6238786;23;20177;-73
2021/12/21 21:00:33;;;;;;;9.18;3.28;;;8.30;99.90;;;;;;6236608;23;20185;-72
2021/12/21 21:03:08;;;;;;;2.77;2.10;;;8.40;99.90;;;;;;6240602;23;20213;-72
2021/12/21 21:05:42;;;;;;;4.07;3.72;;;8.50;99.90;;;;;;6238886;23;20606;-72
2021/12/21 21:12:02;;;;;;;3.40;3.10;;;8.40;99.90;;;;;;6231817;23;20352;-73
2021/12/21 21:18:46;;;;;;;2.35;2.17;;;8.00;99.90;;;;;;6210582;23;20176;-73
2021/12/21 21:21:20;;;;;;;2.95;2.47;;;7.90;99.90;;;;;;6268409;22;20259;-73
2021/12/21 21:27:49;;;;;;;3.10;2.42;;;7.70;99.90;;;;;;6270121;22;20182;-74
2021/12/21 21:31:13;;;;;;;18.98;4.75;;;7.80;99.90;;;;;;6255352;22;20184;-75
2021/12/21 21:33:48;;;;;;;2.53;2.30;;;7.80;99.90;;;;;;6256505;22;20215;-69
2021/12/21 21:36:23;;;;;;;2.63;2.13;;;7.90;99.90;;;;;;6268356;22;20180;-70
2021/12/21 21:38:56;;;;;;;2.50;2.22;;;8.20;99.90;;;;;;6264591;22;20192;-69
2021/12/21 21:41:39;;;;;;;2.05;1.95;;;8.30;99.90;;;;;;6267535;22;20190;-74
2021/12/21 21:44:17;;;;;;;2.10;1.90;;;8.50;99.90;;;;;;6268339;22;20192;-70
2021/12/21 21:46:54;;;;;;;2.20;2.00;;;8.50;99.90;;;;;;6258029;22;20635;-70
2021/12/21 21:49:33;;;;;;;2.22;1.95;;;8.40;99.90;;;;;;6267679;22;20177;-70
2021/12/21 21:55:44;;;;;;;1.70;1.60;;;8.40;99.90;;;;;;6267915;22;20189;-70
2021/12/21 21:58:28;;;;;;;3.25;2.30;;;8.20;99.90;;;;;;6266750;22;20191;-73
2021/12/21 22:01:03;;;;;;;2.35;1.90;;;8.10;99.90;;;;;;6268596;22;20181;-71
2021/12/21 22:03:38;;;;;;;5.35;2.65;;;8.10;99.90;;;;;;6269326;22;20192;-70
2021/12/21 22:06:16;;;;;;;2.40;2.10;;;8.10;99.90;;;;;;6237199;23;20819;-74
2021/12/21 22:08:51;;;;;;;3.22;2.33;;;8.10;99.90;;;;;;6239096;23;20715;-72
2021/12/21 22:11:22;;;;;;;5.65;3.15;;;8.10;99.90;;;;;;6237404;23;20205;-69
2021/12/21 22:14:00;;;;;;;6.88;3.42;;;8.20;99.90;;;;;;6236311;23;20197;-72
2021/12/21 22:16:34;;;;;;;2.97;2.47;;;8.30;99.90;;;;;;6235205;23;20211;-72
2021/12/21 22:19:06;;;;;;;2.38;2.17;;;8.30;99.90;;;;;;6236006;23;20632;-72
2021/12/21 22:22:10;;;;;;;2.50;2.30;;;8.20;99.90;;;;;;6238452;23;20189;-76
2021/12/21 22:24:41;;;;;;;2.30;2.10;;;8.30;99.90;;;;;;6226986;23;20183;-68
2021/12/21 22:27:14;;;;;;;2.95;2.75;;;8.40;99.90;;;;;;6232701;23;20209;-71
2021/12/21 22:32:47;;;;;;;8.95;3.50;;;8.50;99.90;;;;;;6230560;22;20185;-72
2021/12/21 22:35:18;;;;;;;9.82;3.00;;;8.50;99.90;;;;;;6232355;23;20208;-71
2021/12/21 22:37:52;;;;;;;3.47;2.33;;;8.50;99.90;;;;;;6235080;23;20215;-70
2021/12/21 22:40:23;;;;;;;2.13;2.00;;;8.40;99.90;;;;;;6237056;23;20188;-69
2021/12/21 22:42:57;;;;;;;2.65;2.45;;;8.50;99.90;;;;;;6235511;23;20204;-71
2021/12/21 22:45:47;;;;;;;1.90;1.80;;;8.50;99.90;;;;;;6240604;23;20420;-76
2021/12/21 22:48:20;;;;;;;2.28;2.10;;;8.40;99.90;;;;;;6236571;23;20526;-72
2021/12/21 22:50:51;;;;;;;2.53;2.30;;;8.30;99.90;;;;;;6237134;23;20260;-70
2021/12/21 22:53:22;;;;;;;5.97;3.97;;;8.30;99.90;;;;;;6239653;23;20237;-70
2021/12/21 22:55:53;;;;;;;1.92;1.83;;;8.20;99.90;;;;;;6241028;23;20236;-70
2021/12/21 22:58:24;;;;;;;3.53;2.22;;;8.10;99.90;;;;;;6236977;23;20188;-68
2021/12/21 23:00:57;;;;;;;2.90;2.70;;;8.20;99.90;;;;;;6235615;23;20181;-74
2021/12/21 23:03:33;;;;;;;21.83;4.88;;;8.10;99.90;;;;;;6231751;23;20932;-71
2021/12/21 23:06:06;;;;;;;3.90;2.55;;;8.20;99.90;;;;;;6234901;23;20173;-69
2021/12/21 23:08:38;;;;;;;2.63;2.42;;;8.20;99.90;;;;;;6236013;23;20649;-69
2021/12/21 23:11:09;;;;;;;2.63;2.30;;;8.10;99.90;;;;;;6239459;23;20204;-69
2021/12/21 23:13:45;;;;;;;2.75;2.55;;;8.10;99.90;;;;;;6234510;23;20292;-70
2021/12/21 23:16:17;;;;;;;4.40;2.67;;;8.20;99.90;;;;;;6239225;23;20200;-70
2021/12/21 23:18:50;;;;;;;3.65;2.88;;;8.20;99.90;;;;;;6233174;23;20230;-70
2021/12/21 23:21:21;;;;;;;2.60;2.40;;;8.20;99.90;;;;;;6237350;23;20239;-70
2021/12/21 23:23:52;;;;;;;3.30;3.00;;;8.20;99.90;;;;;;6230852;23;20197;-69
2021/12/21 23:26:23;;;;;;;2.42;2.13;;;8.20;99.90;;;;;;6205755;23;20178;-69
2021/12/21 23:28:58;;;;;;;2.80;2.50;;;8.20;99.90;;;;;;6206149;23;20216;-70
2021/12/21 23:31:29;;;;;;;3.70;2.17;;;8.20;99.90;;;;;;6204801;23;20268;-69
2021/12/21 23:34:04;;;;;;;2.80;2.60;;;8.10;99.90;;;;;;6207198;23;20513;-69
2021/12/21 23:36:36;;;;;;;2.75;2.55;;;8.00;99.90;;;;;;6200177;23;20196;-69
2021/12/21 23:39:07;;;;;;;2.65;2.40;;;7.90;99.90;;;;;;6206585;23;20186;-70
2021/12/21 23:41:40;;;;;;;2.70;2.50;;;7.90;99.90;;;;;;6197643;23;20192;-70
2021/12/21 23:44:18;;;;;;;3.15;2.85;;;7.90;99.90;;;;;;6200084;23;20641;-70
2021/12/21 23:46:49;;;;;;;3.45;2.97;;;7.90;99.90;;;;;;6197497;23;20196;-69
2021/12/21 23:49:25;;;;;;;2.72;2.30;;;7.80;99.90;;;;;;6206967;23;20212;-71
2021/12/21 23:52:00;;;;;;;2.30;2.10;;;7.80;99.90;;;;;;6209859;23;20193;-69
2021/12/21 23:54:31;;;;;;;2.95;2.55;;;7.70;99.90;;;;;;6208795;23;20186;-70
2021/12/21 23:57:11;;;;;;;13.88;2.85;;;7.80;99.90;;;;;;6209869;23;20193;-69
2021/12/21 23:59:44;;;;;;;2.58;2.38;;;7.80;99.90;;;;;;6196573;23;20531;-69
